Rawlins Municipal Harvey Field
KRWL : now visible

Airfield :











YOU CAN JOIN US ON...

 
LOGIN :

Register | Disclaimer

   EN    FR    IT 

 









Legend :    VFR   Marginal VFR   IFR   Intensive IFR   Very Intensive IFR
Visi :
Ceiling :
>= 8 km
>= 3000ft
5 to 8 km
1000 to 3000 ft
1500m to 5 km
500 to 1000 ft
800 to 1500m
200 to 500 ft
< 800m
< 200 ft
Symbols :   Thunderstorms  Fog  Heavy snow  Heavy precipitations  Wind > 20 kt






- Airport Elevation : 6813 ft


KRWL - Rawlins Municipal Harvey Field

CURRENT METAR :
  • 121753Z AUTO 24023G29KT 10SM FEW024 01/M04 A3003 RMK AO2 PK WND 23037/1705 SNE34 SLP175 P0000 60000 T00061039 10011 21017 50000

EXPIRED METARs :
  • 121716Z AUTO 23027G35KT 9SM -SN SCT023 00/M04 A3004 RMK AO2 PK WND 23037/1705 P0000 T00001044
  • 121653Z AUTO 23024G35KT 9SM -SN BKN024 00/M04 A3004 RMK AO2 PK WND 22036/1642 SNB34 SLP177 P0000 T00001044
  • 121553Z AUTO 24020G26KT 10SM OVC027 M01/M04 A3004 RMK AO2 PK WND 22032/1518 SLP182 T10061044
  • 121524Z AUTO 23017G32KT 10SM BKN029 M01/M04 A3003 RMK AO2 PK WND 22032/1518 T10061044

TAF KRWL
Valid from the 12 at 18:00 until the 13 at 18:00 UTC


121736Z 1218/1318 22023G34KT 6SM -SN FEW023
FM130000 25023G35KT 4SM -SHSN BKN020
FM130900 25019G28KT P6SM BKN035
FM131500 25032G48KT P6SM SCT040



MET'MAP, your aeronautical weather chart ! - Copyright ORBIFLY December 2007 - Disclaimer

ORBIFLY MET'MAP TEAM :

Programming & Development : Alexandra Zaïnal
Concept & original design : Baudouin d'Aumeries
Assistance for programming : Marc-Olivier Méhu
Technical & hardware support : Manuel Goepfert

Contact : metmap@orbifly.com




SOURCES & CREDITS :

   NOAA       Earth
Advisory